createdAt,value
2019-02-04T00:01:00.755Z,89.07
2019-02-04T00:03:30.561Z,89.08
2019-02-04T00:06:00.157Z,89.10
2019-02-04T00:08:29.935Z,89.10
2019-02-04T00:10:59.546Z,88.83
2019-02-04T00:13:29.269Z,88.84
2019-02-04T00:15:58.979Z,88.70
2019-02-04T00:18:28.710Z,88.80
2019-02-04T00:20:58.224Z,88.81
2019-02-04T00:23:27.871Z,88.64
2019-02-04T00:25:57.412Z,89.40
2019-02-04T00:28:26.978Z,90.29
2019-02-04T00:30:56.535Z,89.98
2019-02-04T00:33:26.099Z,89.91
2019-02-04T00:35:55.959Z,89.85
2019-02-04T00:38:25.571Z,89.83
2019-02-04T00:40:55.076Z,89.76
2019-02-04T00:43:24.619Z,89.57
2019-02-04T00:45:54.180Z,89.46
2019-02-04T00:48:23.781Z,89.52
2019-02-04T00:50:53.506Z,89.54
2019-02-04T00:53:22.984Z,89.55
2019-02-04T00:55:52.622Z,89.32
2019-02-04T00:58:22.264Z,89.30
2019-02-04T01:00:51.877Z,89.22
2019-02-04T01:03:21.688Z,89.19
2019-02-04T01:05:51.266Z,89.16
2019-02-04T01:08:20.795Z,89.09
2019-02-04T01:10:50.419Z,89.11
2019-02-04T01:13:20.068Z,89.15
2019-02-04T01:15:49.671Z,89.25
2019-02-04T01:18:19.858Z,89.32
2019-02-04T01:20:49.449Z,89.33
2019-02-04T01:23:19.077Z,89.38
2019-02-04T01:25:48.717Z,89.43
2019-02-04T01:28:18.301Z,89.51
2019-02-04T01:30:47.816Z,89.78
2019-02-04T01:33:17.365Z,89.77
2019-02-04T01:35:46.890Z,89.85
2019-02-04T01:38:16.484Z,90.33
2019-02-04T01:40:46.004Z,90.76
2019-02-04T01:43:15.531Z,90.91
2019-02-04T01:45:45.549Z,91.08
2019-02-04T01:48:15.319Z,90.71
2019-02-04T01:50:44.862Z,90.59
2019-02-04T01:53:14.373Z,90.49
2019-02-04T01:55:43.879Z,90.42
2019-02-04T01:58:13.632Z,90.32
2019-02-04T02:00:43.415Z,90.11
2019-02-04T02:03:13.049Z,90.13
2019-02-04T02:05:42.581Z,90.08
2019-02-04T02:08:12.108Z,90.10
2019-02-04T02:10:41.715Z,90.29
2019-02-04T02:13:11.887Z,90.29
2019-02-04T02:15:41.356Z,90.40
2019-02-04T02:18:10.971Z,90.37
2019-02-04T02:20:40.461Z,90.42
2019-02-04T02:23:16.794Z,90.55
2019-02-04T02:25:48.451Z,90.67
2019-02-04T02:28:18.020Z,90.31
2019-02-04T02:30:47.559Z,90.24
2019-02-04T02:33:17.106Z,90.20
2019-02-04T02:35:46.625Z,90.08
2019-02-04T02:38:17.339Z,90.17
2019-02-04T02:40:46.984Z,90.01
2019-02-04T02:43:16.508Z,90.12
2019-02-04T02:45:46.016Z,90.05
2019-02-04T02:48:15.570Z,90.06
2019-02-04T02:50:45.118Z,90.12
2019-02-04T02:53:14.604Z,90.14
2019-02-04T02:55:44.244Z,90.05
2019-02-04T02:58:13.864Z,90.10
2019-02-04T03:00:43.407Z,90.15
2019-02-04T03:03:13.057Z,90.23
2019-02-04T03:05:42.595Z,90.18
2019-02-04T03:08:12.399Z,90.09
2019-02-04T03:10:42.220Z,89.94
2019-02-04T03:13:12.096Z,89.91
2019-02-04T03:15:42.208Z,89.87
2019-02-04T03:18:11.927Z,90.00
2019-02-04T03:20:41.720Z,90.04
2019-02-04T03:23:11.764Z,89.76
2019-02-04T03:25:41.834Z,89.74
2019-02-04T03:28:11.509Z,89.69
2019-02-04T03:30:41.034Z,89.42
2019-02-04T03:33:10.513Z,89.33
2019-02-04T03:35:40.009Z,89.37
2019-02-04T03:38:09.887Z,89.38
2019-02-04T03:40:39.393Z,89.24
2019-02-04T03:43:08.917Z,89.16
2019-02-04T03:45:38.469Z,88.95
2019-02-04T03:48:09.403Z,88.86
2019-02-04T03:50:39.313Z,88.80
2019-02-04T03:53:08.854Z,88.80
2019-02-04T03:55:38.511Z,88.43
2019-02-04T03:58:08.047Z,88.19
2019-02-04T04:00:37.615Z,87.65
2019-02-04T04:03:07.657Z,87.74
2019-02-04T04:05:37.282Z,88.05
2019-02-04T04:08:06.985Z,88.03
2019-02-04T04:10:36.584Z,87.83
2019-02-04T04:13:06.412Z,87.89
2019-02-04T04:15:35.979Z,87.63
2019-02-04T04:18:15.368Z,87.59
2019-02-04T04:20:37.782Z,87.64
2019-02-04T04:23:07.390Z,87.72
2019-02-04T04:25:37.112Z,87.99
2019-02-04T04:28:06.819Z,88.11
2019-02-04T04:30:37.605Z,88.19
2019-02-04T04:33:07.077Z,88.08
2019-02-04T04:35:36.671Z,88.04
2019-02-04T04:38:06.344Z,87.61
2019-02-04T04:40:36.067Z,87.56
2019-02-04T04:43:05.570Z,87.57
2019-02-04T04:45:35.385Z,87.77
2019-02-04T04:48:04.883Z,87.72
2019-02-04T04:50:34.422Z,87.38
2019-02-04T04:53:03.903Z,87.34
2019-02-04T04:55:33.480Z,86.86
2019-02-04T04:58:02.958Z,86.53
2019-02-04T05:00:32.576Z,86.24
2019-02-04T05:03:02.142Z,85.97
2019-02-04T05:05:31.720Z,85.97
2019-02-04T05:08:01.215Z,86.28
2019-02-04T05:10:30.835Z,85.94
2019-02-04T05:13:00.548Z,85.74
2019-02-04T05:15:30.117Z,85.44
2019-02-04T05:17:59.572Z,85.52
2019-02-04T05:20:29.093Z,86.23
2019-02-04T05:22:58.603Z,85.72
2019-02-04T05:25:28.413Z,85.96
2019-02-04T05:27:58.113Z,85.89
2019-02-04T05:30:27.640Z,85.56
2019-02-04T05:32:57.148Z,85.62
2019-02-04T05:35:26.743Z,85.77
2019-02-04T05:37:56.252Z,85.47
2019-02-04T05:40:25.744Z,85.31
2019-02-04T05:42:55.268Z,85.62
2019-02-04T05:45:25.113Z,85.30
2019-02-04T05:48:00.894Z,85.06
2019-02-04T05:50:30.480Z,85.06
2019-02-04T05:53:00.170Z,85.50
2019-02-04T05:55:30.679Z,85.41
2019-02-04T05:58:00.441Z,85.32
2019-02-04T06:00:34.323Z,85.32
2019-02-04T06:03:04.044Z,85.15
2019-02-04T06:05:33.556Z,85.44
2019-02-04T06:08:03.307Z,85.15
2019-02-04T06:10:32.854Z,85.22
2019-02-04T06:13:02.409Z,85.20
2019-02-04T06:15:32.021Z,84.62
2019-02-04T06:18:01.599Z,84.93
2019-02-04T06:20:31.143Z,84.77
2019-02-04T06:23:00.673Z,84.75
2019-02-04T06:25:30.189Z,85.15
2019-02-04T06:28:00.063Z,85.10
2019-02-04T06:30:29.537Z,84.46
2019-02-04T06:32:59.357Z,84.29
2019-02-04T06:35:29.399Z,84.36
2019-02-04T06:37:59.031Z,84.29
2019-02-04T06:40:28.575Z,84.04
2019-02-04T06:42:58.151Z,84.04
2019-02-04T06:45:27.660Z,83.79
2019-02-04T06:47:57.313Z,83.65
2019-02-04T06:50:28.214Z,83.50
2019-02-04T06:52:57.657Z,83.53
2019-02-04T06:55:33.910Z,83.65
2019-02-04T06:58:03.363Z,83.69
2019-02-04T07:00:33.158Z,83.55
2019-02-04T07:03:03.142Z,83.20
2019-02-04T07:05:43.159Z,83.67
2019-02-04T07:08:04.032Z,83.62
2019-02-04T07:10:33.573Z,83.83
2019-02-04T07:13:03.251Z,83.73
2019-02-04T07:15:32.960Z,83.38
2019-02-04T07:18:02.446Z,83.52
2019-02-04T07:20:32.028Z,83.48
2019-02-04T07:23:01.483Z,83.03
2019-02-04T07:25:31.166Z,83.09
2019-02-04T07:28:09.063Z,83.19
2019-02-04T07:30:39.144Z,83.35
2019-02-04T07:33:08.626Z,83.37
2019-02-04T07:35:38.152Z,82.58
2019-02-04T07:38:07.742Z,82.55
2019-02-04T07:40:37.279Z,82.58
2019-02-04T07:43:06.793Z,82.95
2019-02-04T07:45:36.717Z,82.56
2019-02-04T07:48:06.303Z,81.96
2019-02-04T07:50:35.799Z,81.60
2019-02-04T07:53:05.300Z,81.63
2019-02-04T07:55:34.889Z,81.29
2019-02-04T07:58:04.424Z,81.19
2019-02-04T08:00:34.297Z,81.23
2019-02-04T08:03:03.966Z,81.25
2019-02-04T08:05:33.516Z,81.23
2019-02-04T08:08:03.037Z,81.35
2019-02-04T08:10:32.527Z,81.23
2019-02-04T08:13:02.453Z,80.92
2019-02-04T08:15:36.810Z,80.60
2019-02-04T08:18:07.026Z,80.58
2019-02-04T08:20:36.600Z,80.44
2019-02-04T08:23:06.137Z,80.19
2019-02-04T08:25:35.714Z,80.14
2019-02-04T08:28:05.264Z,79.63
2019-02-04T08:30:38.341Z,79.46
2019-02-04T08:33:07.613Z,79.18
2019-02-04T08:35:37.142Z,79.65
2019-02-04T08:38:06.754Z,80.23
2019-02-04T08:40:36.738Z,79.89
2019-02-04T08:43:06.584Z,80.20
2019-02-04T08:45:36.032Z,80.06
2019-02-04T08:48:05.728Z,79.96
2019-02-04T08:50:35.241Z,79.98
2019-02-04T08:53:04.849Z,79.65
2019-02-04T08:55:34.831Z,79.75
2019-02-04T08:58:04.715Z,80.23
2019-02-04T09:00:35.242Z,79.67
2019-02-04T09:03:04.770Z,79.79
2019-02-04T09:05:34.494Z,79.94
2019-02-04T09:08:04.102Z,79.89
2019-02-04T09:10:34.056Z,80.10
2019-02-04T09:13:03.632Z,80.23
2019-02-04T09:15:33.181Z,79.13
2019-02-04T09:18:02.828Z,79.64
2019-02-04T09:20:32.352Z,78.28
2019-02-04T09:23:01.965Z,78.03
2019-02-04T09:25:31.952Z,77.64
2019-02-04T09:28:01.579Z,77.79
2019-02-04T09:30:31.297Z,77.83
2019-02-04T09:33:00.824Z,77.27
2019-02-04T09:35:30.404Z,76.65
2019-02-04T09:37:59.917Z,76.21
2019-02-04T09:40:32.834Z,75.96
2019-02-04T09:43:02.438Z,76.45
2019-02-04T09:45:32.040Z,76.91
2019-02-04T09:48:01.936Z,77.05
2019-02-04T09:50:43.011Z,76.42
2019-02-04T09:53:12.663Z,77.45
2019-02-04T09:55:42.172Z,77.58
2019-02-04T09:58:11.704Z,77.19
2019-02-04T10:00:41.166Z,77.61
2019-02-04T10:03:10.914Z,77.78
2019-02-04T10:05:40.624Z,77.27
2019-02-04T10:08:10.475Z,76.86
2019-02-04T10:10:40.110Z,76.98
2019-02-04T10:13:09.664Z,76.59
2019-02-04T10:15:42.281Z,76.84
2019-02-04T10:18:12.368Z,76.52
2019-02-04T10:20:42.394Z,75.92
2019-02-04T10:23:11.942Z,76.71
2019-02-04T10:25:43.175Z,76.76
2019-02-04T10:28:14.953Z,76.64
2019-02-04T10:30:44.909Z,76.45
2019-02-04T10:33:14.802Z,76.57
2019-02-04T10:35:44.391Z,76.49
2019-02-04T10:38:16.379Z,75.98
2019-02-04T10:40:45.281Z,76.46
2019-02-04T10:43:15.051Z,75.62
2019-02-04T10:45:44.733Z,75.93
2019-02-04T10:48:14.323Z,75.56
2019-02-04T10:50:46.708Z,76.09
2019-02-04T10:53:17.147Z,75.68
2019-02-04T10:55:46.845Z,74.90
2019-02-04T10:58:16.475Z,74.95
2019-02-04T11:00:46.465Z,74.51
2019-02-04T11:03:16.040Z,75.23
2019-02-04T11:05:45.715Z,74.80
2019-02-04T11:08:15.308Z,74.44
2019-02-04T11:10:44.740Z,75.02
2019-02-04T11:13:16.087Z,74.72
2019-02-04T11:15:45.983Z,73.92
2019-02-04T11:18:16.189Z,73.84
2019-02-04T11:20:57.237Z,74.38
2019-02-04T11:23:17.082Z,73.18
2019-02-04T11:25:46.846Z,72.61
2019-02-04T11:28:16.914Z,72.49
2019-02-04T11:30:49.597Z,71.60
2019-02-04T11:33:19.184Z,72.07
2019-02-04T11:35:48.699Z,71.87
2019-02-04T11:38:18.755Z,72.04
2019-02-04T11:40:48.750Z,71.70
2019-02-04T11:43:18.748Z,71.16
2019-02-04T11:45:48.413Z,70.42
2019-02-04T11:48:18.527Z,70.45
2019-02-04T11:50:48.060Z,70.32
2019-02-04T11:53:17.697Z,69.63
2019-02-04T11:55:47.728Z,67.87
2019-02-04T11:58:17.398Z,68.32
2019-02-04T12:00:47.040Z,68.42
2019-02-04T12:03:16.824Z,66.03
2019-02-04T12:05:46.531Z,65.99
2019-02-04T12:08:16.456Z,66.21
2019-02-04T12:10:49.445Z,65.73
2019-02-04T12:13:19.362Z,66.22
2019-02-04T12:15:49.133Z,65.58
2019-02-04T12:18:18.655Z,64.76
2019-02-04T12:20:48.546Z,64.32
2019-02-04T12:23:18.369Z,63.17
2019-02-04T12:25:48.246Z,63.43
2019-02-04T12:28:18.425Z,64.50
2019-02-04T12:30:48.249Z,64.31
2019-02-04T12:33:18.017Z,64.10
2019-02-04T12:35:47.896Z,64.86
2019-02-04T12:38:18.173Z,63.80
2019-02-04T12:40:47.859Z,64.02
2019-02-04T12:43:17.316Z,64.19
2019-02-04T12:45:47.030Z,64.75
2019-02-04T12:48:16.655Z,63.78
2019-02-04T12:50:46.513Z,64.54
2019-02-04T12:53:16.171Z,64.36
2019-02-04T12:55:45.732Z,64.16
2019-02-04T12:58:15.397Z,64.43
2019-02-04T13:00:45.200Z,64.51
2019-02-04T13:03:14.696Z,64.29
2019-02-04T13:05:49.468Z,65.09
2019-02-04T13:08:18.937Z,65.56
2019-02-04T13:10:48.544Z,65.04
2019-02-04T13:13:18.730Z,65.45
2019-02-04T13:15:48.221Z,65.25
2019-02-04T13:18:17.701Z,64.61
2019-02-04T13:20:47.397Z,65.89
2019-02-04T13:23:17.074Z,65.62
2019-02-04T13:25:46.675Z,65.59
2019-02-04T13:28:17.252Z,66.52
2019-02-04T13:30:46.882Z,65.98
2019-02-04T13:33:16.527Z,66.00
2019-02-04T13:35:47.317Z,65.99
2019-02-04T13:38:16.883Z,66.28
2019-02-04T13:40:46.466Z,65.48
2019-02-04T13:43:16.038Z,65.89
2019-02-04T13:45:45.749Z,65.74
2019-02-04T13:48:15.582Z,66.13
2019-02-04T13:50:45.420Z,66.07
2019-02-04T13:53:14.887Z,65.77
2019-02-04T13:55:44.504Z,65.38
2019-02-04T13:58:14.544Z,65.10
2019-02-04T14:00:44.406Z,65.48
2019-02-04T14:03:13.894Z,65.50
2019-02-04T14:05:43.669Z,65.15
2019-02-04T14:08:13.399Z,65.61
2019-02-04T14:10:46.114Z,65.19
2019-02-04T14:13:14.948Z,65.33
2019-02-04T14:15:44.937Z,65.76
2019-02-04T14:18:14.740Z,65.20
2019-02-04T14:20:44.461Z,65.10
2019-02-04T14:23:14.212Z,65.53
2019-02-04T14:25:44.154Z,65.31
2019-02-04T14:28:13.985Z,64.94
2019-02-04T14:30:43.746Z,64.79
2019-02-04T14:33:13.336Z,64.75
2019-02-04T14:35:43.345Z,64.99
2019-02-04T14:38:12.824Z,65.00
2019-02-04T14:40:42.334Z,64.34
2019-02-04T14:43:23.972Z,65.24
2019-02-04T14:45:56.970Z,64.85
2019-02-04T14:48:52.652Z,64.21
2019-02-04T14:51:52.700Z,63.63
2019-02-04T14:55:01.679Z,63.36
2019-02-04T14:57:40.235Z,63.65
2019-02-04T15:00:21.973Z,63.48
2019-02-04T15:03:19.409Z,63.16
2019-02-04T15:05:53.471Z,63.65
2019-02-04T15:08:38.438Z,63.05
2019-02-04T15:11:26.256Z,63.55
2019-02-04T15:14:05.557Z,62.94
2019-02-04T15:16:42.465Z,63.52
2019-02-04T15:19:26.930Z,62.80
2019-02-04T15:22:19.443Z,63.13
2019-02-04T15:25:17.235Z,62.77
2019-02-04T15:28:02.364Z,63.36
2019-02-04T15:30:43.787Z,63.33
2019-02-04T15:33:34.711Z,63.88
2019-02-04T15:36:25.383Z,63.92
2019-02-04T15:38:58.131Z,63.66
2019-02-04T15:41:40.018Z,64.09
2019-02-04T15:44:32.532Z,64.56
2019-02-04T15:47:08.251Z,64.70
2019-02-04T15:49:55.670Z,65.26
2019-02-04T15:52:26.789Z,64.24
2019-02-04T15:54:56.789Z,64.99
2019-02-04T15:57:26.256Z,64.99
2019-02-04T15:59:55.829Z,65.40
2019-02-04T16:02:25.573Z,66.11
2019-02-04T16:04:55.132Z,66.95
2019-02-04T16:07:24.621Z,66.89
2019-02-04T16:09:54.111Z,66.34
2019-02-04T16:12:23.613Z,66.71
2019-02-04T16:14:53.284Z,66.59
2019-02-04T16:17:22.762Z,66.50
2019-02-04T16:19:53.505Z,66.34
2019-02-04T16:22:23.150Z,66.33
2019-02-04T16:24:53.103Z,66.31
2019-02-04T16:27:22.668Z,66.19
2019-02-04T16:29:52.133Z,65.85
2019-02-04T16:32:21.661Z,65.72
2019-02-04T16:34:51.210Z,65.75
2019-02-04T16:37:20.682Z,66.08
2019-02-04T16:39:50.404Z,66.59
2019-02-04T16:42:19.919Z,67.79
2019-02-04T16:44:49.398Z,68.21
2019-02-04T16:47:19.054Z,68.56
2019-02-04T16:49:48.675Z,68.10
2019-02-04T16:52:18.758Z,67.78
2019-02-04T16:54:48.563Z,67.79
2019-02-04T16:57:18.139Z,67.50
2019-02-04T16:59:47.780Z,68.07
2019-02-04T17:02:17.268Z,68.47
2019-02-04T17:04:46.731Z,68.37
2019-02-04T17:07:16.358Z,70.28
2019-02-04T17:09:45.903Z,71.77
2019-02-04T17:12:15.948Z,72.19
2019-02-04T17:14:45.696Z,72.50
2019-02-04T17:17:15.309Z,73.27
2019-02-04T17:19:44.883Z,73.88
2019-02-04T17:22:14.392Z,74.75
2019-02-04T17:24:44.337Z,75.94
2019-02-04T17:27:14.254Z,76.53
2019-02-04T17:29:43.898Z,78.02
2019-02-04T17:32:13.870Z,78.98
2019-02-04T17:34:43.460Z,79.39
2019-02-04T17:37:13.452Z,80.81
2019-02-04T17:39:46.112Z,81.51
2019-02-04T17:42:15.671Z,82.13
2019-02-04T17:44:45.497Z,82.49
2019-02-04T17:47:15.076Z,82.77
2019-02-04T17:49:44.521Z,82.73
2019-02-04T17:52:14.276Z,82.86
2019-02-04T17:54:44.388Z,82.95
2019-02-04T17:57:14.275Z,82.75
2019-02-04T17:59:44.153Z,83.09
2019-02-04T18:02:13.826Z,82.75
2019-02-04T18:04:43.278Z,83.12
2019-02-04T18:07:12.777Z,82.88
2019-02-04T18:09:42.406Z,82.77
2019-02-04T18:12:12.192Z,83.08
2019-02-04T18:14:42.163Z,82.66
2019-02-04T18:17:11.884Z,82.81
2019-02-04T18:19:42.026Z,82.72
2019-02-04T18:22:11.539Z,82.30
2019-02-04T18:24:41.205Z,81.98
2019-02-04T18:27:11.028Z,81.79
2019-02-04T18:29:40.559Z,81.62
2019-02-04T18:32:10.420Z,81.15
2019-02-04T18:34:39.984Z,81.13
2019-02-04T18:37:09.731Z,80.60
2019-02-04T18:39:39.290Z,80.36
2019-02-04T18:42:08.779Z,80.16
2019-02-04T18:44:38.776Z,80.29
2019-02-04T18:47:11.118Z,79.85
2019-02-04T18:49:39.540Z,78.66
2019-02-04T18:52:09.033Z,79.13
2019-02-04T18:54:38.884Z,78.23
2019-02-04T18:57:08.435Z,77.54
2019-02-04T18:59:38.172Z,77.48
2019-02-04T19:02:07.755Z,76.70
2019-02-04T19:04:37.310Z,75.93
2019-02-04T19:07:07.447Z,75.04
2019-02-04T19:09:37.068Z,75.25
2019-02-04T19:12:06.827Z,75.01
2019-02-04T19:14:36.525Z,75.41
2019-02-04T19:17:06.035Z,75.54
2019-02-04T19:19:35.496Z,75.74
2019-02-04T19:22:04.977Z,75.71
2019-02-04T19:24:34.656Z,75.16
2019-02-04T19:27:04.356Z,75.20
2019-02-04T19:29:34.431Z,75.27
2019-02-04T19:32:04.343Z,75.67
2019-02-04T19:34:34.427Z,76.00
2019-02-04T19:37:04.026Z,75.82
2019-02-04T19:39:33.785Z,76.18
2019-02-04T19:42:03.423Z,75.98
2019-02-04T19:44:33.347Z,76.22
2019-02-04T19:47:03.110Z,76.24
2019-02-04T19:49:32.696Z,76.24
2019-02-04T19:52:02.392Z,76.87
2019-02-04T19:54:32.001Z,77.60
2019-02-04T19:57:02.002Z,78.21
2019-02-04T19:59:33.326Z,78.50
2019-02-04T20:02:02.775Z,79.38
2019-02-04T20:04:32.332Z,79.80
2019-02-04T20:07:02.271Z,79.79
2019-02-04T20:09:33.526Z,80.43
2019-02-04T20:12:03.274Z,80.93
2019-02-04T20:14:32.883Z,81.60
2019-02-04T20:17:02.771Z,81.90
2019-02-04T20:19:32.522Z,82.18
2019-02-04T20:22:02.170Z,82.75
2019-02-04T20:24:33.587Z,82.58
2019-02-04T20:27:03.208Z,83.13
2019-02-04T20:29:33.054Z,83.42
2019-02-04T20:32:03.163Z,83.47
2019-02-04T20:34:32.906Z,83.72
2019-02-04T20:37:02.419Z,84.13
2019-02-04T20:39:32.015Z,84.32
2019-02-04T20:42:01.581Z,84.50
2019-02-04T20:44:31.179Z,85.03
2019-02-04T20:47:00.774Z,84.83
2019-02-04T20:49:30.370Z,84.78
2019-02-04T20:51:59.900Z,85.28
2019-02-04T20:54:29.417Z,85.62
2019-02-04T20:56:59.083Z,85.80
2019-02-04T20:59:28.661Z,85.62
2019-02-04T21:01:58.272Z,85.47
2019-02-04T21:04:27.827Z,86.08
2019-02-04T21:06:57.352Z,86.13
2019-02-04T21:09:27.223Z,86.44
2019-02-04T21:11:56.847Z,86.46
2019-02-04T21:14:26.479Z,86.48
2019-02-04T21:16:56.190Z,86.35
2019-02-04T21:19:25.783Z,86.51
2019-02-04T21:21:55.315Z,86.93
2019-02-04T21:24:25.414Z,86.80
2019-02-04T21:26:54.994Z,86.62
2019-02-04T21:29:24.647Z,86.91
2019-02-04T21:31:54.182Z,87.03
2019-02-04T21:34:23.699Z,87.28
2019-02-04T21:36:53.232Z,87.54
2019-02-04T21:39:23.070Z,87.84
2019-02-04T21:41:52.617Z,87.76
2019-02-04T21:44:22.159Z,87.76
2019-02-04T21:46:51.719Z,87.95
2019-02-04T21:49:21.508Z,87.96
2019-02-04T21:51:51.007Z,87.60
2019-02-04T21:54:20.577Z,87.33
2019-02-04T21:56:50.052Z,87.52
2019-02-04T21:59:19.786Z,87.72
2019-02-04T22:01:49.267Z,87.83
2019-02-04T22:04:18.869Z,87.90
2019-02-04T22:06:48.362Z,87.72
2019-02-04T22:09:18.143Z,87.88
2019-02-04T22:11:47.654Z,87.54
2019-02-04T22:14:17.604Z,87.28
2019-02-04T22:16:47.154Z,87.30
2019-02-04T22:19:21.239Z,87.59
2019-02-04T22:21:50.808Z,87.26
2019-02-04T22:24:20.349Z,87.14
2019-02-04T22:26:49.901Z,87.25
2019-02-04T22:29:19.888Z,87.33
2019-02-04T22:31:49.428Z,87.21
2019-02-04T22:34:19.481Z,86.75
2019-02-04T22:36:49.087Z,86.84
2019-02-04T22:39:18.723Z,86.66
2019-02-04T22:41:48.302Z,86.98
2019-02-04T22:44:17.792Z,86.80
2019-02-04T22:46:47.415Z,86.71
2019-02-04T22:49:17.049Z,86.71
2019-02-04T22:51:46.544Z,86.49
2019-02-04T22:54:17.055Z,86.56
2019-02-04T22:56:46.601Z,86.22
2019-02-04T22:59:16.117Z,86.59
2019-02-04T23:01:46.274Z,86.55
2019-02-04T23:04:15.885Z,86.18
2019-02-04T23:06:45.620Z,86.29
2019-02-04T23:09:15.220Z,86.38
2019-02-04T23:11:44.828Z,85.88
2019-02-04T23:14:14.359Z,86.09
2019-02-04T23:16:43.840Z,85.99
2019-02-04T23:19:13.338Z,85.97
2019-02-04T23:21:42.960Z,85.99
2019-02-04T23:24:12.719Z,86.10
2019-02-04T23:26:42.393Z,86.20
2019-02-04T23:29:11.861Z,86.14
2019-02-04T23:31:41.402Z,85.99
2019-02-04T23:34:10.886Z,85.85
2019-02-04T23:36:40.460Z,85.86
2019-02-04T23:39:10.011Z,85.97
2019-02-04T23:41:39.617Z,86.05
2019-02-04T23:44:09.276Z,85.98
2019-02-04T23:46:38.759Z,85.80
2019-02-04T23:49:08.801Z,86.18
2019-02-04T23:51:38.376Z,85.96
2019-02-04T23:54:07.851Z,85.86
2019-02-04T23:56:37.443Z,85.65
2019-02-04T23:59:07.046Z,85.95
